Time;durP1;ratioP1;P1;durP2;ratioP2;P2;SDS_P1;SDS_P2;PMS_P1;PMS_P2;Temp;Humidity;BMP_temperature;BMP_pressure;BME280_temperature;BME280_humidity;BME280_pressure;Samples;Min_cycle;Max_cycle;Signal;HPM_P1;HPM_P2
2022/07/08 00:03:19;;;;;;;6.80;5.12;;;;;;;15.24;68.18;100744.20;3619386;77;20916;-75
2022/07/08 00:08:10;;;;;;;5.58;5.00;;;;;;;15.25;68.41;100749.45;3706450;76;20964;-75
2022/07/08 00:13:01;;;;;;;5.78;5.15;;;;;;;15.22;68.48;100748.55;3614463;77;20931;-75
2022/07/08 00:17:52;;;;;;;5.78;5.25;;;;;;;15.19;68.66;100758.61;3653536;77;22469;-75
2022/07/08 00:22:44;;;;;;;6.28;5.67;;;;;;;15.04;69.08;100771.28;3692127;77;20932;-75
2022/07/08 00:27:35;;;;;;;7.40;4.85;;;;;;;15.02;69.24;100762.98;3701188;77;20999;-75
2022/07/08 00:32:26;;;;;;;7.30;5.47;;;;;;;15.06;69.42;100767.36;3579259;76;20904;-75
2022/07/08 00:37:18;;;;;;;6.92;5.45;;;;;;;15.04;69.15;100763.84;3665220;76;20971;-75
2022/07/08 00:42:10;;;;;;;11.40;5.47;;;;;;;15.01;69.44;100766.48;3643124;77;20972;-75
2022/07/08 00:47:01;;;;;;;6.85;5.37;;;;;;;15.05;69.58;100759.92;3600381;77;21441;-75
2022/07/08 00:51:53;;;;;;;7.97;5.10;;;;;;;15.06;69.72;100769.98;3638355;75;20932;-75
2022/07/08 00:56:45;;;;;;;8.53;5.58;;;;;;;14.99;69.77;100770.86;3609648;77;20909;-75
2022/07/08 01:01:37;;;;;;;7.42;5.28;;;;;;;15.02;69.75;100767.80;3643226;76;20965;-75
2022/07/08 01:06:28;;;;;;;8.03;5.47;;;;;;;15.05;69.69;100757.75;3602683;77;22715;-75
2022/07/08 01:11:20;;;;;;;7.40;5.90;;;;;;;15.06;69.70;100758.20;3586720;76;21456;-75
2022/07/08 01:16:11;;;;;;;6.22;4.97;;;;;;;15.02;69.77;100755.13;3622626;76;20936;-75
2022/07/08 01:21:02;;;;;;;8.00;5.70;;;;;;;15.01;70.01;100758.63;3565696;77;20887;-75
2022/07/08 01:25:54;;;;;;;7.15;4.72;;;;;;;15.00;70.22;100763.42;3609830;77;21613;-75
2022/07/08 01:30:46;;;;;;;6.22;5.10;;;;;;;15.00;70.14;100762.11;3651976;77;21326;-75
2022/07/08 01:35:38;;;;;;;7.95;5.50;;;;;;;14.99;70.43;100758.63;3589284;75;21448;-75
2022/07/08 01:40:29;;;;;;;5.62;4.72;;;;;;;15.00;70.54;100758.19;3649356;77;21032;-75
2022/07/08 01:45:20;;;;;;;6.25;5.30;;;;;;;15.01;70.71;100753.40;3674327;76;20941;-75
2022/07/08 01:50:12;;;;;;;5.72;4.95;;;;;;;15.01;70.78;100767.35;3625614;76;21693;-75
2022/07/08 01:55:05;;;;;;;6.50;5.28;;;;;;;15.02;70.87;100762.98;3652926;77;22472;-75
2022/07/08 01:59:56;;;;;;;6.72;5.20;;;;;;;15.03;71.13;100756.88;3612072;75;20912;-75
2022/07/08 02:04:48;;;;;;;5.97;5.30;;;;;;;15.03;70.94;100758.19;3588215;77;20985;-76
2022/07/08 02:09:40;;;;;;;5.80;5.30;;;;;;;15.04;71.23;100763.84;3597170;77;20907;-75
2022/07/08 02:14:32;;;;;;;7.40;6.03;;;;;;;15.05;71.01;100759.06;3608699;77;20938;-75
2022/07/08 02:19:23;;;;;;;6.40;5.58;;;;;;;15.06;71.24;100762.13;3577837;77;21492;-75
2022/07/08 02:24:14;;;;;;;7.35;5.70;;;;;;;15.08;71.16;100762.99;3597916;77;20981;-75
2022/07/08 02:29:06;;;;;;;5.40;4.83;;;;;;;15.10;71.04;100774.33;3609684;76;20928;-75
2022/07/08 02:33:57;;;;;;;9.68;5.62;;;;;;;15.05;71.06;100774.32;3654740;77;20917;-75
2022/07/08 02:38:48;;;;;;;6.15;5.55;;;;;;;15.02;71.13;100782.20;3661000;77;20977;-75
2022/07/08 02:43:39;;;;;;;11.60;6.37;;;;;;;15.04;71.13;100792.23;3647517;76;21299;-75
2022/07/08 02:48:31;;;;;;;7.00;5.22;;;;;;;15.07;71.09;100792.66;3598892;77;21482;-75
2022/07/08 02:53:23;;;;;;;6.15;5.55;;;;;;;15.10;70.95;100783.50;3600223;77;21496;-75
2022/07/08 02:58:14;;;;;;;6.45;5.85;;;;;;;15.10;70.65;100790.05;3655440;77;20971;-75
2022/07/08 03:03:05;;;;;;;7.67;5.67;;;;;;;15.08;71.10;100793.11;3678108;76;20966;-75
2022/07/08 03:07:56;;;;;;;6.83;6.00;;;;;;;15.10;71.11;100795.28;3649492;77;21327;-75
2022/07/08 03:12:47;;;;;;;9.53;5.65;;;;;;;15.09;71.28;100798.77;3681768;77;21298;-75
2022/07/08 03:17:39;;;;;;;8.03;6.10;;;;;;;15.11;71.37;100798.31;3666217;77;21554;-75
2022/07/08 03:22:30;;;;;;;7.12;5.55;;;;;;;15.14;71.55;100800.95;3646410;77;20922;-75
2022/07/08 03:27:21;;;;;;;8.75;6.37;;;;;;;15.13;71.23;100806.18;3632335;77;20936;-75
2022/07/08 03:32:12;;;;;;;6.30;5.70;;;;;;;15.12;71.58;100807.94;3616941;77;20980;-75
2022/07/08 03:37:04;;;;;;;7.30;6.05;;;;;;;15.13;71.60;100817.55;3639491;76;20936;-75
2022/07/08 03:41:55;;;;;;;8.48;6.45;;;;;;;15.14;71.75;100819.72;3645416;76;21035;-75
2022/07/08 03:46:46;;;;;;;7.62;6.20;;;;;;;15.19;71.98;100823.22;3688537;77;20950;-75
2022/07/08 03:51:38;;;;;;;7.83;6.33;;;;;;;15.24;71.85;100833.26;3604387;77;21478;-75
2022/07/08 03:56:29;;;;;;;6.72;5.97;;;;;;;15.29;71.91;100834.55;3631890;77;21363;-75
2022/07/08 04:01:21;;;;;;;9.00;6.15;;;;;;;15.32;72.14;100831.94;3658094;76;20949;-75
2022/07/08 04:06:13;;;;;;;6.80;6.15;;;;;;;15.42;72.22;100831.06;3579007;77;20961;-75
2022/07/08 04:11:05;;;;;;;7.10;6.35;;;;;;;15.49;72.14;100827.97;3643844;76;21896;-75
2022/07/08 04:15:56;;;;;;;7.37;6.65;;;;;;;15.57;72.11;100836.27;3701841;76;20911;-75
2022/07/08 04:20:48;;;;;;;6.87;6.17;;;;;;;15.63;72.17;100844.13;3622675;77;21176;-75
2022/07/08 04:25:39;;;;;;;8.15;6.40;;;;;;;15.70;72.02;100846.72;3701339;77;20887;-75
2022/07/08 04:30:31;;;;;;;9.93;7.47;;;;;;;15.79;71.89;100846.73;3672823;77;20970;-75
2022/07/08 04:35:22;;;;;;;7.55;6.58;;;;;;;15.89;72.13;100853.70;3607478;76;20937;-75
2022/07/08 04:40:15;;;;;;;7.95;6.83;;;;;;;16.00;71.92;100851.91;3630591;77;20919;-75
2022/07/08 04:45:08;;;;;;;8.50;6.15;;;;;;;16.11;71.66;100851.88;3629763;76;20992;-75
2022/07/08 04:49:59;;;;;;;7.55;6.33;;;;;;;16.21;71.64;100844.86;3651509;77;20924;-75
2022/07/08 04:54:50;;;;;;;8.38;6.65;;;;;;;16.35;71.82;100847.43;3628152;77;21424;-75
2022/07/08 04:59:42;;;;;;;9.93;6.28;;;;;;;16.52;71.62;100848.64;3593808;77;20989;-75
2022/07/08 05:04:33;;;;;;;8.00;6.30;;;;;;;16.66;71.64;100850.75;3642565;76;20926;-75
2022/07/08 05:09:24;;;;;;;10.38;6.00;;;;;;;16.76;71.51;100860.31;3553774;76;21824;-75
2022/07/08 05:14:16;;;;;;;9.60;6.75;;;;;;;16.85;71.53;100859.42;3582885;77;21424;-75
2022/07/08 05:19:08;;;;;;;6.97;6.33;;;;;;;17.00;71.31;100858.44;3662044;76;22240;-75
2022/07/08 05:23:59;;;;;;;7.87;7.08;;;;;;;17.20;71.36;100861.36;3604500;77;20935;-74
2022/07/08 05:28:51;;;;;;;12.30;8.15;;;;;;;17.33;70.74;100862.98;3601634;77;20900;-75
2022/07/08 05:33:42;;;;;;;9.90;8.90;;;;;;;17.44;70.54;100872.98;3569896;76;21090;-75
2022/07/08 05:38:37;;;;;;;9.90;8.90;;;;;;;17.65;69.85;100873.65;3595519;78;21005;-75
2022/07/08 05:43:28;;;;;;;10.18;8.18;;;;;;;17.65;69.85;100873.65;3573736;76;21895;-75
2022/07/08 05:48:21;;;;;;;11.18;9.08;;;;;;;17.83;69.96;100870.86;3611961;76;20916;-74
2022/07/08 05:53:15;;;;;;;10.65;9.23;;;;;;;18.08;70.15;100879.38;3609133;77;20978;-75
2022/07/08 05:58:05;;;;;;;16.05;8.95;;;;;;;18.36;69.27;100876.39;3622200;77;21138;-75
2022/07/08 06:02:56;;;;;;;9.97;7.60;;;;;;;18.57;68.99;100885.78;3572025;76;21040;-75
2022/07/08 06:07:47;;;;;;;9.30;8.08;;;;;;;18.66;68.45;100885.66;3624937;77;20904;-75
2022/07/08 06:12:38;;;;;;;17.48;9.13;;;;;;;18.84;68.25;100886.33;3599904;77;21205;-75
2022/07/08 06:17:30;;;;;;;9.83;8.38;;;;;;;19.04;68.05;100889.52;3602824;77;20971;-75
2022/07/08 06:22:21;;;;;;;10.65;8.25;;;;;;;19.31;67.86;100895.70;3578692;77;21160;-75
2022/07/08 06:27:12;;;;;;;13.30;8.27;;;;;;;19.60;66.68;100896.52;3686170;76;21601;-75
2022/07/08 06:32:05;;;;;;;11.63;8.98;;;;;;;19.78;65.92;100896.25;3642731;75;21584;-75
2022/07/08 06:36:56;;;;;;;9.50;8.50;;;;;;;19.90;65.54;100899.55;3626879;77;20916;-75
2022/07/08 06:41:47;;;;;;;8.30;6.80;;;;;;;20.03;65.69;100898.43;3610926;77;20904;-75
2022/07/08 06:46:38;;;;;;;11.05;5.90;;;;;;;20.19;64.53;100899.86;3659821;77;21583;-75
2022/07/08 06:51:29;;;;;;;18.25;6.78;;;;;;;20.44;63.90;100903.30;3647450;77;20950;-75
2022/07/08 06:56:20;;;;;;;8.13;5.90;;;;;;;20.71;63.41;100899.67;3592870;77;20982;-75
2022/07/08 07:01:11;;;;;;;8.85;5.87;;;;;;;20.73;61.55;100908.47;3623216;77;21505;-75
2022/07/08 07:06:03;;;;;;;9.98;4.78;;;;;;;21.10;61.87;100904.95;3608875;78;20983;-76
2022/07/08 07:10:55;;;;;;;7.25;3.83;;;;;;;21.65;61.11;100907.59;3630338;78;49877;-76
2022/07/08 07:15:46;;;;;;;7.20;3.47;;;;;;;21.95;59.35;100902.86;3633214;78;20938;-76
2022/07/08 07:20:38;;;;;;;3.80;3.40;;;;;;;22.27;58.75;100892.25;3578527;78;20958;-77
2022/07/08 07:25:29;;;;;;;5.60;3.65;;;;;;;22.59;57.95;100893.52;3600329;78;20900;-75
2022/07/08 07:30:25;;;;;;;6.40;3.65;;;;;;;22.96;57.68;100901.67;3632034;77;20959;-75
2022/07/08 07:35:16;;;;;;;5.47;3.40;;;;;;;23.63;56.55;100903.05;3631705;78;21469;-79
2022/07/08 07:40:08;;;;;;;4.25;2.35;;;;;;;23.75;55.95;100895.55;3633913;77;21608;-78
2022/07/08 07:45:00;;;;;;;4.67;2.75;;;;;;;23.75;54.99;100899.53;3565067;78;21006;-79
2022/07/08 07:49:52;;;;;;;4.75;2.45;;;;;;;24.23;53.71;100898.30;3623791;78;21482;-80
2022/07/08 07:54:43;;;;;;;3.98;2.67;;;;;;;24.42;53.42;100894.03;3601766;78;20928;-79
2022/07/08 07:59:34;;;;;;;7.17;3.08;;;;;;;24.45;53.35;100890.38;3600037;78;20985;-79
2022/07/08 08:04:26;;;;;;;4.00;2.62;;;;;;;25.88;50.53;100894.77;3574726;77;22047;-79
2022/07/08 08:09:17;;;;;;;4.22;2.55;;;;;;;26.13;50.37;100901.70;3614361;77;20965;-80
2022/07/08 08:14:08;;;;;;;8.08;2.35;;;;;;;25.70;49.88;100902.21;3686825;77;20918;-79
2022/07/08 08:19:00;;;;;;;4.62;2.37;;;;;;;25.47;49.83;100892.10;3673679;76;21406;-79
2022/07/08 08:23:51;;;;;;;5.22;2.58;;;;;;;26.47;48.30;100892.61;3668925;76;21820;-79
2022/07/08 08:28:42;;;;;;;5.33;2.95;;;;;;;29.52;45.22;100889.48;3623088;75;20962;-78
2022/07/08 08:33:34;;;;;;;7.10;2.70;;;;;;;33.22;40.20;100878.98;3598248;77;20980;-77
2022/07/08 08:38:25;;;;;;;4.20;2.80;;;;;;;33.95;39.10;100882.86;3625319;77;20994;-76
2022/07/08 08:43:16;;;;;;;3.93;2.10;;;;;;;32.83;38.79;100890.88;3590196;77;21077;-77
2022/07/08 08:48:10;;;;;;;3.27;2.35;;;;;;;31.74;39.58;100895.46;3677212;77;20986;-77
2022/07/08 08:53:05;;;;;;;6.72;2.10;;;;;;;34.17;35.57;100889.58;3631841;77;20942;-76
2022/07/08 08:58:03;;;;;;;3.10;1.50;;;;;;;33.38;35.39;100889.44;3710776;76;20958;-76
2022/07/08 09:02:56;;;;;;;2.20;1.35;;;;;;;34.22;34.83;100883.02;3641793;76;20967;-79
2022/07/08 09:07:48;;;;;;;4.03;2.20;;;;;;;32.91;35.39;100883.11;3657749;76;20988;-78
2022/07/08 09:12:39;;;;;;;3.27;1.95;;;;;;;32.92;34.94;100882.61;3640994;77;21320;-78
2022/07/08 09:17:30;;;;;;;2.72;2.15;;;;;;;32.28;34.90;100884.52;3662215;76;20953;-76
2022/07/08 09:22:24;;;;;;;1.95;1.85;;;;;;;31.36;36.38;100878.29;3646488;77;20969;-76
2022/07/08 09:27:16;;;;;;;3.00;2.25;;;;;;;30.45;37.31;100877.16;3636846;77;20971;-76
2022/07/08 09:32:15;;;;;;;2.62;2.08;;;;;;;28.58;38.52;100883.30;3599903;76;21527;-75
2022/07/08 09:37:17;;;;;;;4.10;2.42;;;;;;;27.11;40.83;100894.02;3673660;77;21176;-76
2022/07/08 09:42:10;;;;;;;5.03;2.80;;;;;;;25.98;42.66;100891.25;3705602;75;21425;-74
2022/07/08 09:47:13;;;;;;;3.67;2.50;;;;;;;25.24;45.02;100890.84;3628192;75;20886;-73
2022/07/08 09:52:04;;;;;;;4.60;2.50;;;;;;;24.96;45.31;100887.11;3675173;77;21340;-77
2022/07/08 09:57:08;;;;;;;3.00;2.70;;;;;;;27.67;42.78;100880.98;3669321;76;20908;-79
2022/07/08 10:02:02;;;;;;;2.90;2.70;;;;;;;26.89;43.81;100884.41;3573568;75;21220;-77
2022/07/08 10:06:56;;;;;;;6.12;3.05;;;;;;;25.56;45.42;100892.62;3626287;76;21449;-77
2022/07/08 10:11:49;;;;;;;6.03;3.98;;;;;;;24.23;48.85;100919.08;3571346;77;20910;-80
2022/07/08 10:16:42;;;;;;;4.70;3.83;;;;;;;22.83;51.49;100923.27;3596340;77;21040;-79
2022/07/08 10:21:37;;;;;;;5.37;4.87;;;;;;;22.18;53.80;100923.41;3641179;77;21076;-76
2022/07/08 10:26:32;;;;;;;5.85;5.17;;;;;;;22.02;56.13;100918.52;3636418;77;21440;-76
2022/07/08 10:31:25;;;;;;;5.28;4.78;;;;;;;22.13;56.71;100906.31;3661288;77;20961;-75
2022/07/08 10:36:21;;;;;;;6.40;5.08;;;;;;;22.33;57.20;100899.15;3539539;77;20983;-75
2022/07/08 10:41:19;;;;;;;4.67;4.33;;;;;;;22.33;58.47;100891.20;3602051;76;20964;-77
2022/07/08 10:46:15;;;;;;;5.72;4.80;;;;;;;22.38;59.04;100897.70;3627544;77;21020;-77
2022/07/08 10:51:29;;;;;;;4.70;4.17;;;;;;;22.99;59.84;100896.28;3605017;77;21206;-77
2022/07/08 10:56:53;;;;;;;3.70;3.37;;;;;;;23.60;59.25;100912.84;3624961;77;21295;-76
2022/07/08 11:01:54;;;;;;;4.35;3.90;;;;;;;23.36;58.71;100915.02;3635986;77;20985;-76
2022/07/08 11:06:45;;;;;;;4.53;4.12;;;;;;;22.79;60.00;100909.70;3550339;77;20927;-76
2022/07/08 11:11:37;;;;;;;4.62;4.22;;;;;;;22.50;60.65;100922.95;3606004;78;21414;-77
2022/07/08 11:16:32;;;;;;;4.75;3.75;;;;;;;22.15;61.50;100928.78;3600932;78;21134;-77
2022/07/08 11:21:23;;;;;;;3.62;2.92;;;;;;;21.63;61.42;100934.55;3603304;78;20936;-77
2022/07/08 11:26:20;;;;;;;3.57;3.10;;;;;;;21.15;62.09;100914.98;3602672;77;20894;-77
2022/07/08 11:31:25;;;;;;;2.45;2.25;;;;;;;20.95;62.90;100905.73;3614383;78;21541;-75
2022/07/08 11:36:18;;;;;;;2.80;2.60;;;;;;;20.73;63.37;100911.11;3563014;78;20963;-78
2022/07/08 11:41:09;;;;;;;2.45;2.35;;;;;;;20.61;64.16;100916.62;3606274;78;22708;-77
2022/07/08 11:46:01;;;;;;;5.30;3.67;;;;;;;20.42;64.33;100895.86;3609402;78;20993;-78
2022/07/08 11:50:53;;;;;;;3.95;3.60;;;;;;;20.31;65.38;100915.02;3630436;78;20939;-78
2022/07/08 11:55:44;;;;;;;4.75;3.75;;;;;;;20.22;66.01;100915.22;3591687;78;20907;-78
2022/07/08 12:00:36;;;;;;;4.47;3.80;;;;;;;20.00;66.33;100898.02;3600485;78;20994;-75
2022/07/08 12:05:27;;;;;;;3.87;3.50;;;;;;;19.89;66.89;100901.75;3549599;77;21249;-77
2022/07/08 12:10:23;;;;;;;3.90;3.33;;;;;;;19.78;67.61;100912.08;3654305;77;21310;-77
2022/07/08 12:15:16;;;;;;;5.17;4.60;;;;;;;19.72;67.87;100901.58;3656242;77;20977;-77
2022/07/08 12:20:08;;;;;;;3.80;3.50;;;;;;;19.87;68.70;100901.80;3565193;77;20946;-77
2022/07/08 12:25:03;;;;;;;3.75;3.45;;;;;;;20.03;68.49;100911.63;3612388;77;21021;-77
2022/07/08 12:30:05;;;;;;;4.40;3.85;;;;;;;20.27;67.68;100903.66;3663863;77;20962;-76
2022/07/08 12:34:59;;;;;;;4.78;4.28;;;;;;;20.48;68.21;100894.43;3662665;77;20954;-76
2022/07/08 12:39:51;;;;;;;4.22;3.77;;;;;;;20.97;68.57;100892.95;3653314;76;20946;-77
2022/07/08 12:44:48;;;;;;;3.83;3.45;;;;;;;21.67;67.66;100883.27;3622736;77;21442;-75
2022/07/08 12:49:48;;;;;;;3.87;3.58;;;;;;;21.89;65.69;100878.73;3626429;77;20977;-77
2022/07/08 12:54:42;;;;;;;5.08;4.67;;;;;;;22.03;65.72;100874.37;3588591;76;21134;-78
2022/07/08 12:59:34;;;;;;;5.78;5.33;;;;;;;22.32;65.70;100870.95;3584672;77;21526;-77
2022/07/08 13:04:27;;;;;;;6.40;5.90;;;;;;;22.59;65.38;100865.70;3590950;77;20958;-77
2022/07/08 13:09:19;;;;;;;6.55;6.05;;;;;;;22.90;65.38;100863.45;3608420;77;21460;-75
2022/07/08 13:14:11;;;;;;;5.67;5.28;;;;;;;23.06;65.01;100847.48;3597966;77;20888;-76
2022/07/08 13:19:07;;;;;;;5.90;5.47;;;;;;;23.29;64.10;100850.69;3590700;77;21668;-76
2022/07/08 13:23:59;;;;;;;4.67;4.30;;;;;;;23.20;63.96;100842.58;3584691;77;22015;-76
2022/07/08 13:28:53;;;;;;;3.70;3.40;;;;;;;23.65;63.69;100832.23;3662859;77;20932;-77
2022/07/08 13:33:46;;;;;;;2.95;2.80;;;;;;;24.65;62.95;100826.72;3606525;77;20971;-76
2022/07/08 13:38:37;;;;;;;2.20;2.10;;;;;;;25.00;61.92;100827.54;3463675;78;20959;-76
2022/07/08 13:43:28;;;;;;;3.25;2.45;;;;;;;24.32;60.12;100829.76;3554728;77;22160;-75
2022/07/08 13:48:19;;;;;;;3.35;2.58;;;;;;;23.56;61.56;100839.58;3552233;76;21001;-80
2022/07/08 13:53:11;;;;;;;2.58;2.37;;;;;;;23.30;62.53;100855.52;3599907;77;20951;-77
2022/07/08 13:58:05;;;;;;;2.12;1.95;;;;;;;22.92;62.71;100861.14;3604465;78;20995;-76
2022/07/08 14:02:56;;;;;;;1.72;1.62;;;;;;;22.20;62.46;100877.89;3590353;77;20923;-77
2022/07/08 14:07:47;;;;;;;1.70;1.60;;;;;;;21.32;61.99;100904.01;3659798;76;21480;-81
2022/07/08 14:12:38;;;;;;;2.62;1.70;;;;;;;20.44;62.99;100943.37;3652034;76;20917;-79
2022/07/08 14:17:32;;;;;;;2.67;2.10;;;;;;;19.78;64.02;100940.20;3659727;75;20958;-80
2022/07/08 14:22:23;;;;;;;1.40;1.30;;;;;;;19.23;65.02;100957.78;3670197;75;20922;-80
2022/07/08 14:27:14;;;;;;;1.92;1.77;;;;;;;18.75;65.85;100947.01;3645662;76;20924;-77
2022/07/08 14:32:06;;;;;;;2.45;1.60;;;;;;;18.45;66.44;100943.86;3681976;75;21131;-79
2022/07/08 14:36:58;;;;;;;3.60;1.67;;;;;;;18.13;67.02;100937.19;3567649;77;21044;-79
2022/07/08 14:41:49;;;;;;;2.75;2.05;;;;;;;18.10;68.07;100938.56;3528757;79;20989;-77
2022/07/08 14:46:40;;;;;;;2.60;1.95;;;;;;;18.14;68.49;100924.93;3557807;78;20943;-80
2022/07/08 14:51:32;;;;;;;3.50;1.95;;;;;;;18.16;68.59;100916.12;3517014;78;21010;-81
2022/07/08 14:56:23;;;;;;;3.98;2.33;;;;;;;18.17;68.86;100913.93;3558958;78;21051;-79
2022/07/08 15:01:15;;;;;;;2.15;1.85;;;;;;;18.18;69.11;100903.81;3585865;78;20975;-77
2022/07/08 15:06:06;;;;;;;4.55;2.50;;;;;;;18.26;69.20;100903.29;3548184;78;20952;-77
2022/07/08 15:10:57;;;;;;;5.08;2.25;;;;;;;18.36;69.60;100896.59;3425261;80;20979;-76
2022/07/08 15:15:48;;;;;;;3.35;2.30;;;;;;;18.42;69.82;100901.77;3576794;77;20967;-79
2022/07/08 15:20:40;;;;;;;2.37;2.17;;;;;;;18.47;69.90;100902.59;3644486;77;21129;-79
2022/07/08 15:25:31;;;;;;;3.55;2.40;;;;;;;18.51;70.38;100900.78;3574843;77;20990;-77
2022/07/08 15:30:22;;;;;;;3.02;2.17;;;;;;;18.62;70.68;100902.40;3622224;77;20951;-75
2022/07/08 15:35:14;;;;;;;2.75;2.55;;;;;;;18.66;70.46;100900.14;3642787;77;21473;-75
2022/07/08 15:40:07;;;;;;;2.77;2.50;;;;;;;18.77;70.45;100897.81;3559254;77;21057;-75
2022/07/08 15:44:58;;;;;;;4.25;3.15;;;;;;;18.97;70.73;100898.41;3611657;77;21442;-76
2022/07/08 15:49:50;;;;;;;2.83;2.37;;;;;;;19.17;70.79;100899.88;3600783;77;20993;-75
2022/07/08 15:54:42;;;;;;;3.30;2.37;;;;;;;19.42;70.67;100904.30;3642315;77;21005;-75
2022/07/08 15:59:33;;;;;;;3.30;2.65;;;;;;;19.62;70.05;100906.16;3634926;77;21520;-75
2022/07/08 16:04:25;;;;;;;2.67;2.47;;;;;;;19.75;70.02;100900.25;3649076;76;20998;-75
2022/07/08 16:09:17;;;;;;;3.67;2.58;;;;;;;19.75;69.62;100906.84;3598118;77;21554;-75
2022/07/08 16:14:08;;;;;;;2.85;2.65;;;;;;;19.60;69.96;100902.69;3565004;77;20913;-76
2022/07/08 16:18:59;;;;;;;3.12;2.47;;;;;;;19.52;70.41;100901.08;3598843;77;21009;-76
2022/07/08 16:23:50;;;;;;;2.45;2.25;;;;;;;19.38;70.74;100910.07;3568362;77;20911;-76
2022/07/08 16:28:41;;;;;;;4.00;2.98;;;;;;;19.15;70.91;100925.39;3590789;77;20995;-76
2022/07/08 16:33:32;;;;;;;2.95;2.65;;;;;;;18.92;71.39;100935.80;3550540;77;22429;-76
2022/07/08 16:38:24;;;;;;;3.62;3.20;;;;;;;18.80;72.27;100943.88;3611048;77;20957;-76
2022/07/08 16:43:15;;;;;;;3.92;3.55;;;;;;;18.68;72.43;100954.97;3561212;78;21108;-76
2022/07/08 16:48:06;;;;;;;4.83;3.52;;;;;;;18.59;72.88;100968.72;3601458;78;20980;-76
2022/07/08 16:52:59;;;;;;;3.70;3.00;;;;;;;18.48;73.20;100962.26;3581568;78;20923;-77
2022/07/08 16:57:50;;;;;;;5.58;2.42;;;;;;;18.39;73.77;100959.73;3540173;77;21164;-76
2022/07/08 17:02:41;;;;;;;3.02;2.55;;;;;;;18.28;73.46;100963.36;3518709;79;20964;-77
2022/07/08 17:07:33;;;;;;;2.40;2.10;;;;;;;18.28;73.58;100963.36;3512135;79;20955;-76
2022/07/08 17:12:24;;;;;;;2.58;2.08;;;;;;;18.24;73.73;100951.13;3491087;79;20955;-77
2022/07/08 17:17:15;;;;;;;2.62;2.37;;;;;;;18.25;73.73;100940.14;3492160;79;20939;-77
2022/07/08 17:22:07;;;;;;;2.25;2.05;;;;;;;18.34;74.04;100937.86;3470979;79;21140;-77
2022/07/08 17:26:58;;;;;;;2.35;2.15;;;;;;;18.53;74.12;100948.60;3529152;79;21466;-77
2022/07/08 17:31:50;;;;;;;4.47;2.35;;;;;;;18.91;74.11;100951.20;3491013;79;20964;-76
2022/07/08 17:36:41;;;;;;;1.67;1.57;;;;;;;19.11;73.31;100952.23;3505263;80;21415;-76
2022/07/08 17:41:33;;;;;;;2.37;1.60;;;;;;;19.40;73.22;100956.19;3491792;80;20927;-76
2022/07/08 17:46:25;;;;;;;1.75;1.60;;;;;;;19.47;72.57;100956.97;3498781;80;21497;-76
2022/07/08 17:51:16;;;;;;;2.42;1.50;;;;;;;19.34;72.76;100959.80;3494306;80;21001;-76
2022/07/08 17:56:08;;;;;;;1.67;1.57;;;;;;;19.30;72.86;100959.44;3522200;80;21573;-76
2022/07/08 18:01:00;;;;;;;1.85;1.40;;;;;;;19.25;72.82;100963.90;3505225;79;20903;-76
2022/07/08 18:05:51;;;;;;;1.87;1.50;;;;;;;19.10;73.18;100960.16;3512962;79;20916;-76
2022/07/08 18:10:42;;;;;;;1.50;1.40;;;;;;;18.90;73.39;100968.34;3505226;79;21967;-75
2022/07/08 18:15:33;;;;;;;1.70;1.20;;;;;;;18.72;72.89;100965.48;3443743;79;21518;-75
2022/07/08 18:20:24;;;;;;;1.40;1.30;;;;;;;18.58;73.29;100966.53;3496617;79;20999;-75
2022/07/08 18:25:15;;;;;;;2.27;1.27;;;;;;;18.50;73.40;100971.01;3489092;79;20952;-75
2022/07/08 18:30:08;;;;;;;2.15;1.37;;;;;;;18.41;73.70;100977.25;3478594;79;22185;-75
2022/07/08 18:35:02;;;;;;;1.52;1.42;;;;;;;18.32;73.82;100977.35;3479871;79;20982;-75
2022/07/08 18:39:53;;;;;;;1.45;1.35;;;;;;;18.17;74.27;100981.45;3454815;79;21003;-75
2022/07/08 18:44:45;;;;;;;1.82;1.70;;;;;;;18.05;74.63;100975.89;3498592;80;20970;-75
2022/07/08 18:49:36;;;;;;;2.47;1.98;;;;;;;17.93;74.89;100985.20;3499117;80;21073;-75
2022/07/08 18:54:27;;;;;;;3.52;1.70;;;;;;;17.80;75.13;100990.99;3461426;79;20970;-75
2022/07/08 18:59:19;;;;;;;1.70;1.60;;;;;;;17.72;75.33;100996.29;3532372;79;21343;-76
2022/07/08 19:04:12;;;;;;;2.22;1.55;;;;;;;17.62;75.45;101001.22;3535154;79;20959;-75
2022/07/08 19:09:04;;;;;;;1.10;1.10;;;;;;;17.52;75.71;101005.20;3492348;79;20985;-75
2022/07/08 19:13:55;;;;;;;2.62;1.60;;;;;;;17.40;75.85;101009.67;3468353;79;21527;-75
2022/07/08 19:18:48;;;;;;;1.92;1.82;;;;;;;17.31;75.98;101007.97;3455432;79;20953;-75
2022/07/08 19:23:39;;;;;;;3.22;1.82;;;;;;;17.23;75.97;101013.73;3495109;79;21103;-75
2022/07/08 19:28:30;;;;;;;2.67;1.87;;;;;;;17.09;76.00;101004.16;3491856;79;20994;-75
2022/07/08 19:33:22;;;;;;;2.20;1.95;;;;;;;16.99;75.99;101014.30;3490708;79;20948;-75
2022/07/08 19:38:14;;;;;;;2.95;2.40;;;;;;;16.85;76.03;101021.37;3474745;80;21013;-75
2022/07/08 19:43:05;;;;;;;1.57;1.47;;;;;;;16.78;76.18;101017.85;3560512;78;20997;-75
2022/07/08 19:47:57;;;;;;;2.02;1.70;;;;;;;16.67;75.87;101019.20;3505865;78;21032;-75
2022/07/08 19:52:48;;;;;;;2.40;1.47;;;;;;;16.61;75.90;101022.28;3493842;78;20967;-75
2022/07/08 19:57:39;;;;;;;2.93;2.10;;;;;;;16.49;75.84;101029.32;3624892;78;21021;-75
2022/07/08 20:02:30;;;;;;;2.35;1.65;;;;;;;16.36;75.85;101033.73;3573831;78;21277;-75
2022/07/08 20:07:21;;;;;;;3.60;1.90;;;;;;;16.30;75.94;101037.66;3565925;78;21011;-75
2022/07/08 20:12:14;;;;;;;1.87;1.52;;;;;;;16.19;75.74;101038.12;3552240;78;20956;-75
2022/07/08 20:17:06;;;;;;;2.80;1.70;;;;;;;16.11;75.89;101039.41;3554293;78;21008;-75
2022/07/08 20:21:57;;;;;;;4.15;1.72;;;;;;;16.06;76.08;101037.26;3536714;78;20986;-75
2022/07/08 20:26:50;;;;;;;1.75;1.60;;;;;;;15.99;76.17;101041.63;3617964;78;20980;-75
2022/07/08 20:31:41;;;;;;;3.22;1.75;;;;;;;15.94;76.04;101051.23;3544233;78;20971;-75
2022/07/08 20:36:32;;;;;;;1.67;1.30;;;;;;;15.76;75.81;101056.03;3547470;78;21348;-74
2022/07/08 20:46:33;;;;;;;2.08;1.67;;;;;;;15.56;75.98;101049.42;3574387;78;20915;-75
2022/07/08 20:51:25;;;;;;;9.33;1.72;;;;;;;15.49;76.29;101047.67;3540706;78;21046;-75
2022/07/08 20:56:16;;;;;;;3.90;1.52;;;;;;;15.45;76.27;101049.82;3591839;78;21558;-76
2022/07/08 21:01:07;;;;;;;2.27;1.32;;;;;;;15.37;76.38;101048.95;3527172;78;21308;-75
2022/07/08 21:05:59;;;;;;;2.08;1.87;;;;;;;15.33;76.28;101046.75;3540027;78;21503;-75
2022/07/08 21:10:50;;;;;;;2.22;1.60;;;;;;;15.31;76.64;101045.88;3542680;77;21964;-75
2022/07/08 21:15:41;;;;;;;4.67;1.60;;;;;;;15.28;76.42;101040.63;3535996;77;20999;-75
2022/07/08 21:20:32;;;;;;;2.37;1.62;;;;;;;15.18;76.22;101042.32;3548590;77;22049;-75
2022/07/08 21:25:23;;;;;;;2.37;1.90;;;;;;;15.06;76.26;101037.07;3495243;78;21998;-75
2022/07/08 21:30:14;;;;;;;2.40;1.55;;;;;;;15.01;76.29;101045.34;3532363;79;21034;-75
2022/07/08 21:35:08;;;;;;;1.67;1.57;;;;;;;14.84;75.98;101048.77;3580158;77;20931;-75
2022/07/08 21:39:59;;;;;;;1.57;1.47;;;;;;;14.77;76.35;101040.44;3612263;77;21004;-76
2022/07/08 21:44:50;;;;;;;1.67;1.57;;;;;;;14.63;76.31;101031.61;3602657;77;20914;-76
2022/07/08 21:49:41;;;;;;;3.10;1.45;;;;;;;14.63;76.31;101031.61;3563791;76;21958;-76
2022/07/08 21:54:33;;;;;;;1.30;1.20;;;;;;;14.58;76.17;101038.59;3524548;78;20976;-75
2022/07/08 21:59:25;;;;;;;2.67;2.10;;;;;;;14.47;76.27;101041.11;3578957;77;21528;-75
2022/07/08 22:04:16;;;;;;;1.30;1.20;;;;;;;14.38;76.13;101038.00;3618075;77;21187;-75
2022/07/08 22:09:12;;;;;;;2.33;1.90;;;;;;;14.32;76.34;101037.95;3545924;79;20952;-75
2022/07/08 22:14:04;;;;;;;3.77;2.12;;;;;;;14.27;76.37;101033.11;3572197;79;22066;-75
2022/07/08 22:18:55;;;;;;;3.50;2.08;;;;;;;14.21;76.33;101029.16;3518764;78;20988;-75
2022/07/08 22:23:46;;;;;;;3.05;2.80;;;;;;;14.11;76.24;101025.18;3565800;79;21035;-76
2022/07/08 22:28:38;;;;;;;3.05;2.25;;;;;;;14.07;76.40;101027.30;3507481;79;21054;-76
2022/07/08 22:33:32;;;;;;;2.25;2.05;;;;;;;14.01;76.24;101029.89;3506194;79;21746;-76
2022/07/08 22:38:23;;;;;;;2.12;1.60;;;;;;;13.95;76.19;101035.08;3532998;78;22565;-76
2022/07/08 22:43:14;;;;;;;4.90;1.92;;;;;;;13.87;76.16;101026.28;3521934;79;20984;-77